createdAt,value
2022-08-28T00:00:43.130Z,55.52
2022-08-28T00:03:13.876Z,55.87
2022-08-28T00:05:46.501Z,57.02
2022-08-28T00:08:17.731Z,57.39
2022-08-28T00:10:46.171Z,57.29
2022-08-28T00:13:20.548Z,57.61
2022-08-28T00:15:51.419Z,58.31
2022-08-28T00:18:20.732Z,57.29
2022-08-28T00:20:50.916Z,57.83
2022-08-28T00:23:20.444Z,58.52
2022-08-28T00:25:49.336Z,58.35
2022-08-28T00:28:23.712Z,57.29
2022-08-28T00:30:55.634Z,58.30
2022-08-28T00:33:28.627Z,58.65
2022-08-28T00:35:58.410Z,59.34
2022-08-28T00:38:28.418Z,59.66
2022-08-28T00:40:59.620Z,59.54
2022-08-28T00:43:36.244Z,59.93
2022-08-28T00:46:09.243Z,60.11
2022-08-28T00:48:38.636Z,59.87
2022-08-28T00:51:25.632Z,60.06
2022-08-28T00:53:58.745Z,59.68
2022-08-28T00:56:29.303Z,59.90
2022-08-28T00:59:04.800Z,60.89
2022-08-28T01:01:34.030Z,61.00
2022-08-28T01:04:06.210Z,60.33
2022-08-28T01:06:38.726Z,60.06
2022-08-28T01:09:07.421Z,60.52
2022-08-28T01:11:36.488Z,60.36
2022-08-28T01:14:07.047Z,60.07
2022-08-28T01:16:36.593Z,60.94
2022-08-28T01:19:08.080Z,60.29
2022-08-28T01:21:40.520Z,60.77
2022-08-28T01:24:14.771Z,59.60
2022-08-28T01:26:44.172Z,59.51
2022-08-28T01:29:13.346Z,59.32
2022-08-28T01:31:42.917Z,59.19
2022-08-28T01:34:13.669Z,57.90
2022-08-28T01:36:42.804Z,57.35
2022-08-28T01:39:16.442Z,56.71
2022-08-28T01:41:48.859Z,57.38
2022-08-28T01:44:18.344Z,58.27
2022-08-28T01:46:47.831Z,57.28
2022-08-28T01:49:16.589Z,57.23
2022-08-28T01:51:45.211Z,57.49
2022-08-28T01:54:15.948Z,58.85
2022-08-28T01:56:46.401Z,59.54
2022-08-28T01:59:16.156Z,60.31
2022-08-28T02:01:45.460Z,60.73
2022-08-28T02:04:15.359Z,61.30
2022-08-28T02:06:44.123Z,60.36
2022-08-28T02:09:14.589Z,60.35
2022-08-28T02:11:46.302Z,60.08
2022-08-28T02:14:15.790Z,60.35
2022-08-28T02:16:44.780Z,59.40
2022-08-28T02:19:13.464Z,58.07
2022-08-28T02:21:42.088Z,58.86
2022-08-28T02:24:11.151Z,59.25
2022-08-28T02:26:40.273Z,59.11
2022-08-28T02:29:10.297Z,58.80
2022-08-28T02:31:39.410Z,58.10
2022-08-28T02:34:11.100Z,58.47
2022-08-28T02:36:41.710Z,57.14
2022-08-28T02:39:10.548Z,57.97
2022-08-28T02:41:39.293Z,58.65
2022-08-28T02:44:10.877Z,58.93
2022-08-28T02:46:39.518Z,59.06
2022-08-28T02:49:08.450Z,60.23
2022-08-28T02:51:37.117Z,60.72
2022-08-28T02:54:05.860Z,62.57
2022-08-28T02:56:34.863Z,62.49
2022-08-28T02:59:03.937Z,62.60
2022-08-28T03:01:34.441Z,63.00
2022-08-28T03:04:03.755Z,62.83
2022-08-28T03:06:32.642Z,62.71
2022-08-28T03:09:01.321Z,62.37
2022-08-28T03:11:30.231Z,62.14
2022-08-28T03:13:58.875Z,62.38
2022-08-28T03:16:27.488Z,62.83
2022-08-28T03:18:57.900Z,63.75
2022-08-28T03:21:26.679Z,64.32
2022-08-28T03:23:55.390Z,63.60
2022-08-28T03:26:24.453Z,63.79
2022-08-28T03:28:54.628Z,63.71
2022-08-28T03:31:29.167Z,63.00
2022-08-28T03:33:59.147Z,62.29
2022-08-28T03:36:29.602Z,63.70
2022-08-28T03:39:01.836Z,62.16
2022-08-28T03:41:32.367Z,61.49
2022-08-28T03:44:02.196Z,60.61
2022-08-28T03:46:33.464Z,61.22
2022-08-28T03:49:04.119Z,60.81
2022-08-28T03:51:34.266Z,61.36
2022-08-28T03:54:03.580Z,60.00
2022-08-28T03:56:32.801Z,60.01
2022-08-28T03:59:03.436Z,59.99
2022-08-28T04:01:33.552Z,58.70
2022-08-28T04:04:04.677Z,58.54
2022-08-28T04:06:33.728Z,57.68
2022-08-28T04:09:05.160Z,57.97
2022-08-28T04:11:38.504Z,57.59
2022-08-28T04:14:07.422Z,57.74
2022-08-28T04:16:36.789Z,57.68
2022-08-28T04:19:07.012Z,57.93
2022-08-28T04:21:40.152Z,58.05
2022-08-28T04:24:09.751Z,58.31
2022-08-28T04:26:38.830Z,59.35
2022-08-28T04:29:08.195Z,58.00
2022-08-28T04:31:37.274Z,58.53
2022-08-28T04:34:08.731Z,58.25
2022-08-28T04:36:38.064Z,57.70
2022-08-28T04:39:08.758Z,57.22
2022-08-28T04:41:38.815Z,58.05
2022-08-28T04:44:08.350Z,57.70
2022-08-28T04:46:37.683Z,57.32
2022-08-28T04:49:07.761Z,56.42
2022-08-28T04:51:41.391Z,56.47
2022-08-28T04:54:11.780Z,56.60
2022-08-28T04:56:41.416Z,57.37
2022-08-28T04:59:10.394Z,58.65
2022-08-28T05:01:40.973Z,58.75
2022-08-28T05:04:11.994Z,57.93
2022-08-28T05:06:43.421Z,57.60
2022-08-28T05:09:12.319Z,57.87
2022-08-28T05:11:44.871Z,57.59
2022-08-28T05:14:16.224Z,57.66
2022-08-28T05:16:46.805Z,57.29
2022-08-28T05:19:18.151Z,57.68
2022-08-28T05:21:46.605Z,56.04
2022-08-28T05:24:15.372Z,56.61
2022-08-28T05:26:44.247Z,55.66
2022-08-28T05:29:17.868Z,55.47
2022-08-28T05:31:47.450Z,55.95
2022-08-28T05:34:17.953Z,55.93
2022-08-28T05:36:46.843Z,55.53
2022-08-28T05:39:16.388Z,54.12
2022-08-28T05:41:46.577Z,52.52
2022-08-28T05:44:17.687Z,50.29
2022-08-28T05:46:47.777Z,49.37
2022-08-28T05:49:19.900Z,50.12
2022-08-28T05:51:48.973Z,50.05
2022-08-28T05:54:18.233Z,51.41
2022-08-28T05:56:47.082Z,51.50
2022-08-28T05:59:16.807Z,50.94
2022-08-28T06:01:50.692Z,50.65
2022-08-28T06:04:25.651Z,51.37
2022-08-28T06:06:55.106Z,51.19
2022-08-28T06:09:29.408Z,51.05
2022-08-28T06:12:00.137Z,51.13
2022-08-28T06:14:29.786Z,51.60
2022-08-28T06:16:59.687Z,50.96
2022-08-28T06:19:31.484Z,50.32
2022-08-28T06:22:07.371Z,50.02
2022-08-28T06:24:36.974Z,49.81
2022-08-28T06:27:06.381Z,50.15
2022-08-28T06:29:35.116Z,50.03
2022-08-28T06:32:05.571Z,49.07
2022-08-28T06:34:36.044Z,49.70
2022-08-28T06:37:05.073Z,48.79
2022-08-28T06:39:34.143Z,48.03
2022-08-28T06:42:02.924Z,48.46
2022-08-28T06:44:32.426Z,49.01
2022-08-28T06:47:02.082Z,49.28
2022-08-28T06:49:30.731Z,48.32
2022-08-28T06:52:00.692Z,46.75
2022-08-28T06:54:31.129Z,48.35
2022-08-28T06:56:59.767Z,48.39
2022-08-28T06:59:28.589Z,47.63
2022-08-28T07:01:57.683Z,47.25
2022-08-28T07:04:27.715Z,47.43
2022-08-28T07:06:56.352Z,47.65
2022-08-28T07:09:26.646Z,46.16
2022-08-28T07:11:55.265Z,46.08
2022-08-28T07:14:25.769Z,45.40
2022-08-28T07:16:57.045Z,45.89
2022-08-28T07:19:25.749Z,45.25
2022-08-28T07:21:55.412Z,46.13
2022-08-28T07:24:24.400Z,44.86
2022-08-28T07:26:54.393Z,45.27
2022-08-28T07:29:23.199Z,47.14
2022-08-28T07:31:54.001Z,48.97
2022-08-28T07:34:26.941Z,49.13
2022-08-28T07:36:58.248Z,48.59
2022-08-28T07:39:27.016Z,49.97
2022-08-28T07:41:57.924Z,50.10
2022-08-28T07:47:32.093Z,49.54
2022-08-28T07:50:01.584Z,50.01
2022-08-28T07:52:30.563Z,48.84
2022-08-28T07:54:59.246Z,51.35
2022-08-28T07:57:29.697Z,49.82
2022-08-28T07:59:58.699Z,49.82
2022-08-28T08:02:27.752Z,49.78
2022-08-28T08:04:56.810Z,48.90
2022-08-28T08:07:25.447Z,49.89
2022-08-28T08:09:54.076Z,49.54
2022-08-28T08:12:22.997Z,50.12
2022-08-28T08:14:53.250Z,49.51
2022-08-28T08:17:21.897Z,49.00
2022-08-28T08:19:50.784Z,48.01
2022-08-28T08:22:19.964Z,47.53
2022-08-28T08:24:48.599Z,46.87
2022-08-28T08:27:18.258Z,46.33
2022-08-28T08:29:46.867Z,45.24
2022-08-28T08:32:17.299Z,45.26
2022-08-28T08:34:46.757Z,46.11
2022-08-28T08:37:18.850Z,44.10
2022-08-28T08:39:47.757Z,43.76
2022-08-28T08:42:26.203Z,45.08
2022-08-28T08:44:56.454Z,45.87
2022-08-28T08:47:32.616Z,43.95
2022-08-28T08:50:04.077Z,44.17
2022-08-28T08:52:38.757Z,44.81
2022-08-28T08:55:15.256Z,45.50
2022-08-28T08:57:46.197Z,43.97
2022-08-28T09:00:19.073Z,44.57
2022-08-28T09:02:53.035Z,44.09
2022-08-28T09:05:24.297Z,43.90
2022-08-28T09:07:57.643Z,41.56
2022-08-28T09:10:35.502Z,41.24
2022-08-28T09:13:09.397Z,41.67
2022-08-28T09:15:48.673Z,42.25
2022-08-28T09:18:21.590Z,43.09
2022-08-28T09:20:51.654Z,43.20
2022-08-28T09:23:20.709Z,42.68
2022-08-28T09:25:52.559Z,42.78
2022-08-28T09:28:23.492Z,42.72
2022-08-28T09:31:00.285Z,42.76
2022-08-28T09:33:37.454Z,42.85
2022-08-28T09:36:27.946Z,41.79
2022-08-28T09:39:11.714Z,42.44
2022-08-28T09:42:14.969Z,41.80
2022-08-28T09:44:53.067Z,40.68
2022-08-28T09:47:46.255Z,42.39
2022-08-28T09:50:33.562Z,42.28
2022-08-28T09:53:17.777Z,42.12
2022-08-28T09:55:56.847Z,40.60
2022-08-28T09:58:31.716Z,40.75
2022-08-28T10:01:05.197Z,40.49
2022-08-28T10:03:38.700Z,38.74
2022-08-28T10:06:12.848Z,39.31
2022-08-28T10:08:52.174Z,39.49
2022-08-28T10:11:27.963Z,40.76
2022-08-28T10:14:03.890Z,38.89
2022-08-28T10:16:40.375Z,40.15
2022-08-28T10:19:23.834Z,39.14
2022-08-28T10:21:59.291Z,39.31
2022-08-28T10:24:42.144Z,38.42
2022-08-28T10:27:14.857Z,39.14
2022-08-28T10:29:50.857Z,40.31
2022-08-28T10:32:34.637Z,37.82
2022-08-28T10:35:06.911Z,37.42
2022-08-28T10:37:44.829Z,36.31
2022-08-28T10:40:16.526Z,37.00
2022-08-28T10:42:55.364Z,37.93
2022-08-28T10:45:26.357Z,38.77
2022-08-28T10:47:55.814Z,37.27
2022-08-28T10:50:27.326Z,38.51
2022-08-28T10:53:01.200Z,38.01
2022-08-28T10:55:34.850Z,37.32
2022-08-28T10:58:24.565Z,36.91
2022-08-28T11:00:55.341Z,38.52
2022-08-28T11:03:34.473Z,36.90
2022-08-28T11:06:10.111Z,36.46
2022-08-28T11:08:40.762Z,37.31
2022-08-28T11:11:14.841Z,38.02
2022-08-28T11:13:53.998Z,36.33
2022-08-28T11:16:25.569Z,36.65
2022-08-28T11:19:21.711Z,36.70
2022-08-28T11:21:52.940Z,36.43
2022-08-28T11:24:33.122Z,36.69
2022-08-28T11:27:08.461Z,33.92
2022-08-28T11:30:21.927Z,34.13
2022-08-28T11:33:06.725Z,34.11
2022-08-28T11:35:51.006Z,34.08
2022-08-28T11:39:06.448Z,36.15
2022-08-28T11:41:41.283Z,34.96
2022-08-28T11:44:39.828Z,35.14
2022-08-28T11:47:42.068Z,33.53
2022-08-28T11:50:24.695Z,34.02
2022-08-28T11:53:28.734Z,33.27
2022-08-28T11:56:30.482Z,33.75
2022-08-28T11:59:11.063Z,32.73
2022-08-28T12:01:40.355Z,31.31
2022-08-28T12:04:12.411Z,31.87
2022-08-28T12:07:17.582Z,32.43
2022-08-28T12:09:47.326Z,32.85
2022-08-28T12:12:53.465Z,32.74
2022-08-28T12:15:43.848Z,33.58
2022-08-28T12:18:19.965Z,33.56
2022-08-28T12:21:00.772Z,33.36
2022-08-28T12:23:37.168Z,30.76
2022-08-28T12:26:08.735Z,32.27
2022-08-28T12:28:45.057Z,32.13
2022-08-28T12:31:48.072Z,34.16
2022-08-28T12:34:26.402Z,34.89
2022-08-28T12:36:59.634Z,35.42
2022-08-28T12:39:30.562Z,35.14
2022-08-28T12:42:00.039Z,34.82
2022-08-28T12:44:30.338Z,35.25
2022-08-28T12:47:00.432Z,34.03
2022-08-28T12:49:32.951Z,35.22
2022-08-28T12:52:10.571Z,35.72
2022-08-28T12:54:39.442Z,36.00
2022-08-28T12:57:11.050Z,35.62
2022-08-28T12:59:41.572Z,35.13
2022-08-28T13:02:14.405Z,34.22
2022-08-28T13:04:50.254Z,36.05
2022-08-28T13:07:22.095Z,35.54
2022-08-28T13:09:52.688Z,35.97
2022-08-28T13:12:31.986Z,36.65
2022-08-28T13:15:14.589Z,35.95
2022-08-28T13:17:54.963Z,35.79
2022-08-28T13:20:28.064Z,35.48
2022-08-28T13:22:57.134Z,35.51
2022-08-28T13:25:27.728Z,35.04
2022-08-28T13:27:58.520Z,34.83
2022-08-28T13:30:30.368Z,34.87
2022-08-28T13:33:02.539Z,34.49
2022-08-28T13:35:37.907Z,35.00
2022-08-28T13:38:09.663Z,34.64
2022-08-28T13:41:02.885Z,35.23
2022-08-28T13:43:44.499Z,35.61
2022-08-28T13:46:13.642Z,34.44
2022-08-28T13:48:43.683Z,34.71
2022-08-28T13:51:19.296Z,34.55
2022-08-28T13:53:50.177Z,34.52
2022-08-28T13:56:18.842Z,34.86
2022-08-28T13:58:56.792Z,33.95
2022-08-28T14:01:49.810Z,35.18
2022-08-28T14:04:19.226Z,35.13
2022-08-28T14:06:47.833Z,35.39
2022-08-28T14:09:17.815Z,35.06
2022-08-28T14:11:49.673Z,33.52
2022-08-28T14:14:18.124Z,33.33
2022-08-28T14:16:46.828Z,33.02
2022-08-28T14:19:15.808Z,32.96
2022-08-28T14:21:45.852Z,32.50
2022-08-28T14:24:14.575Z,33.97
2022-08-28T14:26:43.694Z,33.47
2022-08-28T14:29:14.021Z,33.89
2022-08-28T14:31:43.994Z,34.68
2022-08-28T14:34:14.726Z,34.23
2022-08-28T14:36:45.821Z,34.05
2022-08-28T14:39:15.077Z,33.33
2022-08-28T14:41:46.487Z,33.61
2022-08-28T14:44:15.180Z,33.66
2022-08-28T14:46:46.459Z,34.13
2022-08-28T14:49:17.068Z,34.23
2022-08-28T14:51:48.823Z,34.71
2022-08-28T14:54:18.776Z,33.84
2022-08-28T14:56:48.252Z,33.68
2022-08-28T14:59:23.861Z,33.43
2022-08-28T15:01:55.251Z,33.32
2022-08-28T15:04:26.109Z,33.14
2022-08-28T15:06:59.384Z,33.40
2022-08-28T15:09:28.554Z,34.19
2022-08-28T15:11:57.922Z,34.47
2022-08-28T15:14:26.853Z,35.15
2022-08-28T15:16:55.505Z,35.38
2022-08-28T15:19:25.433Z,36.28
2022-08-28T15:21:55.558Z,36.49
2022-08-28T15:24:28.039Z,36.64
2022-08-28T15:26:57.024Z,36.89
2022-08-28T15:29:26.561Z,36.88
2022-08-28T15:31:55.468Z,38.35
2022-08-28T15:34:26.271Z,38.29
2022-08-28T15:36:56.386Z,38.09
2022-08-28T15:39:44.824Z,38.42
2022-08-28T15:42:14.013Z,38.77
2022-08-28T15:44:42.747Z,40.44
2022-08-28T15:47:12.612Z,40.20
2022-08-28T15:49:48.867Z,40.58
2022-08-28T15:52:21.289Z,40.15
2022-08-28T15:54:51.554Z,40.92
2022-08-28T15:57:22.607Z,40.52
2022-08-28T15:59:51.554Z,40.23
2022-08-28T16:02:21.495Z,40.23
2022-08-28T16:04:51.473Z,40.67
2022-08-28T16:07:21.732Z,40.65
2022-08-28T16:09:52.331Z,41.22
2022-08-28T16:12:20.991Z,40.91
2022-08-28T16:14:50.463Z,41.43
2022-08-28T16:17:19.105Z,41.15
2022-08-28T16:19:48.959Z,41.01
2022-08-28T16:22:18.347Z,41.32
2022-08-28T16:24:47.425Z,40.66
2022-08-28T16:27:17.659Z,40.83
2022-08-28T16:29:49.583Z,41.23
2022-08-28T16:35:24.737Z,41.67
2022-08-28T16:44:01.293Z,41.22
2022-08-28T16:52:39.245Z,42.36
2022-08-28T16:55:10.422Z,42.51
2022-08-28T16:57:39.624Z,42.49
2022-08-28T17:00:13.488Z,42.17
2022-08-28T17:02:42.697Z,41.99
2022-08-28T17:05:13.230Z,43.04
2022-08-28T17:07:42.115Z,42.58
2022-08-28T17:10:12.234Z,41.96
2022-08-28T17:12:41.646Z,42.34
2022-08-28T17:15:12.607Z,42.72
2022-08-28T17:17:42.372Z,42.77
2022-08-28T17:20:32.564Z,43.37
2022-08-28T17:23:00.861Z,43.68
2022-08-28T17:25:30.421Z,44.12
2022-08-28T17:28:01.038Z,44.03
2022-08-28T17:30:31.316Z,44.19
2022-08-28T17:33:00.401Z,43.35
2022-08-28T17:35:31.840Z,43.40
2022-08-28T17:38:11.033Z,43.83
2022-08-28T17:40:40.390Z,43.79
2022-08-28T17:43:12.402Z,43.71
2022-08-28T17:45:43.024Z,43.88
2022-08-28T17:48:12.068Z,43.28
2022-08-28T17:50:41.384Z,43.46
2022-08-28T17:53:10.202Z,43.66
2022-08-28T17:55:39.081Z,43.82
2022-08-28T17:58:08.598Z,43.70
2022-08-28T18:00:37.851Z,43.85
2022-08-28T18:03:08.950Z,44.15
2022-08-28T18:05:37.894Z,44.17
2022-08-28T18:08:07.157Z,43.91
2022-08-28T18:10:36.692Z,43.80
2022-08-28T18:13:07.215Z,44.32
2022-08-28T18:15:36.986Z,44.56
2022-08-28T18:18:06.349Z,44.11
2022-08-28T18:20:36.693Z,44.21
2022-08-28T18:23:06.095Z,44.89
2022-08-28T18:25:47.309Z,44.57
2022-08-28T18:28:23.479Z,43.79
2022-08-28T18:30:53.794Z,44.59
2022-08-28T18:33:24.591Z,44.64
2022-08-28T18:35:58.748Z,45.44
2022-08-28T18:38:29.015Z,45.02
2022-08-28T18:41:00.066Z,44.51
2022-08-28T18:43:29.429Z,44.93
2022-08-28T18:46:00.381Z,45.62
2022-08-28T18:48:30.143Z,45.30
2022-08-28T18:51:00.511Z,45.69
2022-08-28T18:53:30.116Z,45.39
2022-08-28T18:55:59.155Z,45.71
2022-08-28T18:58:32.464Z,45.89
2022-08-28T19:01:03.623Z,45.93
2022-08-28T19:03:33.038Z,46.03
2022-08-28T19:06:03.509Z,46.18
2022-08-28T19:08:33.203Z,46.88
2022-08-28T19:11:02.146Z,46.93
2022-08-28T19:13:31.164Z,47.18
2022-08-28T19:16:00.562Z,48.19
2022-08-28T19:18:30.003Z,47.59
2022-08-28T19:21:07.573Z,48.70
2022-08-28T19:23:37.255Z,48.74
2022-08-28T19:26:07.091Z,49.20
2022-08-28T19:28:40.689Z,49.48
2022-08-28T19:31:09.804Z,50.10
2022-08-28T19:33:39.643Z,49.66
2022-08-28T19:36:10.775Z,49.67
2022-08-28T19:38:39.760Z,50.22
2022-08-28T19:41:09.146Z,50.44
2022-08-28T19:43:43.343Z,50.30
2022-08-28T19:46:18.367Z,50.75
2022-08-28T19:48:49.115Z,50.11
2022-08-28T19:51:23.417Z,50.44
2022-08-28T19:53:57.825Z,50.41
2022-08-28T19:56:29.236Z,51.30
2022-08-28T19:58:59.932Z,51.48
2022-08-28T20:01:30.806Z,51.39
2022-08-28T20:04:00.570Z,51.92
2022-08-28T20:06:32.431Z,52.34
2022-08-28T20:09:02.961Z,52.58
2022-08-28T20:11:32.082Z,52.04
2022-08-28T20:14:04.892Z,52.92
2022-08-28T20:16:35.559Z,53.08
2022-08-28T20:19:05.025Z,54.04
2022-08-28T20:21:37.073Z,54.68
2022-08-28T20:24:08.581Z,55.18
2022-08-28T20:26:38.853Z,55.64
2022-08-28T20:29:09.061Z,55.32
2022-08-28T20:31:41.046Z,56.16
2022-08-28T20:34:10.693Z,55.80
2022-08-28T20:36:41.129Z,56.12
2022-08-28T20:39:10.754Z,55.58
2022-08-28T20:41:41.163Z,55.85
2022-08-28T20:44:12.691Z,55.82
2022-08-28T20:46:42.495Z,56.14
2022-08-28T20:49:12.170Z,56.25
2022-08-28T20:51:56.972Z,56.57
2022-08-28T20:54:29.124Z,56.63
2022-08-28T20:56:59.502Z,56.95
2022-08-28T20:59:34.453Z,57.33
2022-08-28T21:02:10.491Z,57.00
2022-08-28T21:04:41.086Z,57.49
2022-08-28T21:07:11.642Z,57.63
2022-08-28T21:10:04.919Z,57.88
2022-08-28T21:12:29.237Z,57.51
2022-08-28T21:14:58.750Z,58.66
2022-08-28T21:17:29.412Z,59.33
2022-08-28T21:20:01.175Z,59.26
2022-08-28T21:22:32.046Z,60.04
2022-08-28T21:25:02.362Z,59.85
2022-08-28T21:27:30.998Z,60.94
2022-08-28T21:30:01.028Z,60.46
2022-08-28T21:32:34.125Z,61.16
2022-08-28T21:35:03.264Z,61.10
2022-08-28T21:37:33.688Z,61.65
2022-08-28T21:40:03.137Z,61.06
2022-08-28T21:42:32.194Z,61.25
2022-08-28T21:45:01.639Z,61.21
2022-08-28T21:47:31.438Z,61.69
2022-08-28T21:50:00.741Z,62.53
2022-08-28T21:52:31.379Z,62.21
2022-08-28T21:55:02.063Z,62.18
2022-08-28T21:57:31.133Z,63.36
2022-08-28T22:00:00.261Z,64.38
2022-08-28T22:02:29.385Z,63.76
2022-08-28T22:04:58.362Z,64.03
2022-08-28T22:07:27.000Z,64.10
2022-08-28T22:09:55.625Z,63.99
2022-08-28T22:12:25.966Z,63.96
2022-08-28T22:14:54.754Z,63.84
2022-08-28T22:17:23.438Z,62.90
2022-08-28T22:19:52.343Z,63.27
2022-08-28T22:22:38.492Z,63.39
2022-08-28T22:25:08.927Z,63.27
2022-08-28T22:27:39.080Z,62.69
2022-08-28T22:30:08.932Z,64.45
2022-08-28T22:32:37.551Z,63.99
2022-08-28T22:35:07.190Z,63.67
2022-08-28T22:37:36.078Z,64.40
2022-08-28T22:40:09.416Z,64.25
2022-08-28T22:42:43.795Z,64.26
2022-08-28T22:45:12.980Z,64.64
2022-08-28T22:47:41.865Z,65.47
2022-08-28T22:50:11.413Z,65.41
2022-08-28T22:52:43.187Z,64.28
2022-08-28T22:55:13.250Z,64.95
2022-08-28T22:57:43.363Z,65.26
2022-08-28T23:00:14.667Z,65.13
2022-08-28T23:02:43.233Z,65.40
2022-08-28T23:05:12.475Z,65.46
2022-08-28T23:07:41.619Z,64.72
2022-08-28T23:10:11.466Z,65.37
2022-08-28T23:12:42.876Z,65.20
2022-08-28T23:15:14.832Z,65.47
2022-08-28T23:17:43.906Z,64.95
2022-08-28T23:20:15.900Z,65.91
2022-08-28T23:22:44.764Z,66.13
2022-08-28T23:25:16.543Z,66.88
2022-08-28T23:27:45.870Z,65.89
2022-08-28T23:30:17.435Z,66.68
2022-08-28T23:32:46.841Z,66.80
2022-08-28T23:35:17.310Z,67.38
2022-08-28T23:37:48.864Z,67.32
2022-08-28T23:40:22.980Z,67.44
2022-08-28T23:42:52.671Z,68.50
2022-08-28T23:45:23.414Z,68.42
2022-08-28T23:47:52.556Z,68.39
2022-08-28T23:50:22.754Z,68.63
2022-08-28T23:52:51.889Z,67.65
2022-08-28T23:55:21.490Z,67.98
2022-08-28T23:57:52.405Z,68.37
